sensor_id;sensor_type;location;lat;lon;timestamp;temperature;humidity
47336;DHT22;33068;51.990;5.926;2023-02-01T00:00:38;4.70;99.90
47336;DHT22;33068;51.990;5.926;2023-02-01T00:03:08;4.40;99.90
47336;DHT22;33068;51.990;5.926;2023-02-01T00:05:36;4.50;99.90
47336;DHT22;33068;51.990;5.926;2023-02-01T00:08:19;4.20;99.90
47336;DHT22;33068;51.990;5.926;2023-02-01T00:10:59;4.50;99.90
47336;DHT22;33068;51.990;5.926;2023-02-01T00:13:29;4.40;99.90
47336;DHT22;33068;51.990;5.926;2023-02-01T00:16:03;4.40;99.90
47336;DHT22;33068;51.990;5.926;2023-02-01T00:18:31;4.40;99.90
47336;DHT22;33068;51.990;5.926;2023-02-01T00:21:01;4.40;99.90
47336;DHT22;33068;51.990;5.926;2023-02-01T00:23:32;4.30;99.90
47336;DHT22;33068;51.990;5.926;2023-02-01T00:26:00;4.50;99.90
47336;DHT22;33068;51.990;5.926;2023-02-01T00:28:27;4.30;99.90
47336;DHT22;33068;51.990;5.926;2023-02-01T00:30:57;4.00;99.90
47336;DHT22;33068;51.990;5.926;2023-02-01T00:33:25;4.30;99.90
47336;DHT22;33068;51.990;5.926;2023-02-01T00:35:56;4.20;99.90
47336;DHT22;33068;51.990;5.926;2023-02-01T00:38:24;4.20;99.90
47336;DHT22;33068;51.990;5.926;2023-02-01T00:40:52;4.10;99.90
47336;DHT22;33068;51.990;5.926;2023-02-01T00:43:21;4.20;99.90
47336;DHT22;33068;51.990;5.926;2023-02-01T00:45:52;4.10;99.90
47336;DHT22;33068;51.990;5.926;2023-02-01T00:48:19;4.10;99.90
47336;DHT22;33068;51.990;5.926;2023-02-01T00:50:46;4.20;99.90
47336;DHT22;33068;51.990;5.926;2023-02-01T00:53:13;4.20;99.90
47336;DHT22;33068;51.990;5.926;2023-02-01T00:55:40;4.20;99.90
47336;DHT22;33068;51.990;5.926;2023-02-01T00:58:15;4.30;99.90
47336;DHT22;33068;51.990;5.926;2023-02-01T01:00:42;4.30;99.90
47336;DHT22;33068;51.990;5.926;2023-02-01T01:03:10;4.40;99.90
47336;DHT22;33068;51.990;5.926;2023-02-01T01:05:47;4.70;99.90
47336;DHT22;33068;51.990;5.926;2023-02-01T01:08:16;4.60;99.90
47336;DHT22;33068;51.990;5.926;2023-02-01T01:10:44;4.60;99.90
47336;DHT22;33068;51.990;5.926;2023-02-01T01:13:11;4.60;99.90
47336;DHT22;33068;51.990;5.926;2023-02-01T01:15:40;4.80;99.90
47336;DHT22;33068;51.990;5.926;2023-02-01T01:18:08;4.80;99.90
47336;DHT22;33068;51.990;5.926;2023-02-01T01:20:40;4.70;99.90
47336;DHT22;33068;51.990;5.926;2023-02-01T01:23:14;4.60;99.90
47336;DHT22;33068;51.990;5.926;2023-02-01T01:25:41;4.60;99.90
47336;DHT22;33068;51.990;5.926;2023-02-01T01:28:08;4.70;99.90
47336;DHT22;33068;51.990;5.926;2023-02-01T01:30:39;4.60;99.90
47336;DHT22;33068;51.990;5.926;2023-02-01T01:33:06;4.60;99.90
47336;DHT22;33068;51.990;5.926;2023-02-01T01:35:34;4.70;99.90
47336;DHT22;33068;51.990;5.926;2023-02-01T01:38:01;4.60;99.90
47336;DHT22;33068;51.990;5.926;2023-02-01T01:40:30;4.40;99.90
47336;DHT22;33068;51.990;5.926;2023-02-01T01:43:03;4.50;99.90
47336;DHT22;33068;51.990;5.926;2023-02-01T01:45:32;4.50;99.90
47336;DHT22;33068;51.990;5.926;2023-02-01T01:48:07;4.50;99.90
47336;DHT22;33068;51.990;5.926;2023-02-01T01:50:37;4.50;99.90
47336;DHT22;33068;51.990;5.926;2023-02-01T01:53:12;4.70;99.90
47336;DHT22;33068;51.990;5.926;2023-02-01T01:55:43;4.90;99.90
47336;DHT22;33068;51.990;5.926;2023-02-01T01:58:13;4.40;99.90
47336;DHT22;33068;51.990;5.926;2023-02-01T02:00:43;4.50;99.90
47336;DHT22;33068;51.990;5.926;2023-02-01T02:03:15;4.80;99.90
47336;DHT22;33068;51.990;5.926;2023-02-01T02:05:45;4.40;99.90
47336;DHT22;33068;51.990;5.926;2023-02-01T02:08:13;4.40;99.90
47336;DHT22;33068;51.990;5.926;2023-02-01T02:10:40;4.40;99.90
47336;DHT22;33068;51.990;5.926;2023-02-01T02:13:28;4.40;99.90
47336;DHT22;33068;51.990;5.926;2023-02-01T02:16:07;4.40;99.90
47336;DHT22;33068;51.990;5.926;2023-02-01T02:18:46;4.40;99.90
47336;DHT22;33068;51.990;5.926;2023-02-01T02:21:18;4.70;99.90
47336;DHT22;33068;51.990;5.926;2023-02-01T02:24:16;4.50;99.90
47336;DHT22;33068;51.990;5.926;2023-02-01T02:27:02;4.50;99.90
47336;DHT22;33068;51.990;5.926;2023-02-01T02:35:46;4.50;99.90
47336;DHT22;33068;51.990;5.926;2023-02-01T02:38:20;4.50;99.90
47336;DHT22;33068;51.990;5.926;2023-02-01T02:40:57;4.60;99.90
47336;DHT22;33068;51.990;5.926;2023-02-01T02:43:34;4.70;99.90
47336;DHT22;33068;51.990;5.926;2023-02-01T02:46:22;4.50;99.90
47336;DHT22;33068;51.990;5.926;2023-02-01T02:49:12;4.50;99.90
47336;DHT22;33068;51.990;5.926;2023-02-01T02:51:46;4.50;99.90
47336;DHT22;33068;51.990;5.926;2023-02-01T02:54:36;4.40;99.90
47336;DHT22;33068;51.990;5.926;2023-02-01T02:57:19;4.30;99.90
47336;DHT22;33068;51.990;5.926;2023-02-01T03:00:08;4.30;99.90
47336;DHT22;33068;51.990;5.926;2023-02-01T03:02:54;4.30;99.90
47336;DHT22;33068;51.990;5.926;2023-02-01T03:05:43;4.30;99.90
47336;DHT22;33068;51.990;5.926;2023-02-01T03:08:14;4.30;99.90
47336;DHT22;33068;51.990;5.926;2023-02-01T03:10:47;4.20;99.90
47336;DHT22;33068;51.990;5.926;2023-02-01T03:13:20;4.40;99.90
47336;DHT22;33068;51.990;5.926;2023-02-01T03:15:53;4.30;99.90
47336;DHT22;33068;51.990;5.926;2023-02-01T03:18:28;4.20;99.90
47336;DHT22;33068;51.990;5.926;2023-02-01T03:20:58;4.20;99.90
47336;DHT22;33068;51.990;5.926;2023-02-01T03:23:33;4.20;99.90
47336;DHT22;33068;51.990;5.926;2023-02-01T03:26:02;4.20;99.90
47336;DHT22;33068;51.990;5.926;2023-02-01T03:28:32;4.20;99.90
47336;DHT22;33068;51.990;5.926;2023-02-01T03:31:01;4.20;99.90
47336;DHT22;33068;51.990;5.926;2023-02-01T03:33:29;4.20;99.90
47336;DHT22;33068;51.990;5.926;2023-02-01T03:36:12;4.20;99.90
47336;DHT22;33068;51.990;5.926;2023-02-01T03:38:49;4.10;99.90
47336;DHT22;33068;51.990;5.926;2023-02-01T03:41:24;4.20;99.90
47336;DHT22;33068;51.990;5.926;2023-02-01T03:43:56;4.20;99.90
47336;DHT22;33068;51.990;5.926;2023-02-01T03:46:32;4.20;99.90
47336;DHT22;33068;51.990;5.926;2023-02-01T03:49:03;4.30;99.90
47336;DHT22;33068;51.990;5.926;2023-02-01T03:51:34;4.30;99.90
47336;DHT22;33068;51.990;5.926;2023-02-01T03:54:05;4.50;99.90
47336;DHT22;33068;51.990;5.926;2023-02-01T03:56:36;4.40;99.90
47336;DHT22;33068;51.990;5.926;2023-02-01T03:59:05;4.50;99.90
47336;DHT22;33068;51.990;5.926;2023-02-01T04:01:34;4.60;99.90
47336;DHT22;33068;51.990;5.926;2023-02-01T04:04:02;4.60;99.90
47336;DHT22;33068;51.990;5.926;2023-02-01T04:06:29;4.50;99.90
47336;DHT22;33068;51.990;5.926;2023-02-01T04:09:00;4.60;99.90
47336;DHT22;33068;51.990;5.926;2023-02-01T04:11:29;4.50;99.90
47336;DHT22;33068;51.990;5.926;2023-02-01T04:13:56;4.60;99.90
47336;DHT22;33068;51.990;5.926;2023-02-01T04:16:23;4.70;99.90
47336;DHT22;33068;51.990;5.926;2023-02-01T04:18:51;4.70;99.90
47336;DHT22;33068;51.990;5.926;2023-02-01T04:21:19;4.70;99.90
47336;DHT22;33068;51.990;5.926;2023-02-01T04:23:47;4.80;99.90
47336;DHT22;33068;51.990;5.926;2023-02-01T04:26:14;4.80;99.90
47336;DHT22;33068;51.990;5.926;2023-02-01T04:28:43;4.90;99.90
47336;DHT22;33068;51.990;5.926;2023-02-01T04:31:13;4.80;99.90
47336;DHT22;33068;51.990;5.926;2023-02-01T04:33:40;4.80;99.90
47336;DHT22;33068;51.990;5.926;2023-02-01T04:36:08;4.80;99.90
47336;DHT22;33068;51.990;5.926;2023-02-01T04:38:35;4.80;99.90
47336;DHT22;33068;51.990;5.926;2023-02-01T04:41:02;4.90;99.90
47336;DHT22;33068;51.990;5.926;2023-02-01T04:43:30;5.00;99.90
47336;DHT22;33068;51.990;5.926;2023-02-01T04:45:58;5.00;99.90
47336;DHT22;33068;51.990;5.926;2023-02-01T04:48:25;5.20;99.90
47336;DHT22;33068;51.990;5.926;2023-02-01T04:50:53;5.20;99.90
47336;DHT22;33068;51.990;5.926;2023-02-01T04:53:20;5.30;99.90
47336;DHT22;33068;51.990;5.926;2023-02-01T04:55:48;5.30;99.90
47336;DHT22;33068;51.990;5.926;2023-02-01T04:58:16;5.40;99.90
47336;DHT22;33068;51.990;5.926;2023-02-01T05:00:43;5.50;99.90
47336;DHT22;33068;51.990;5.926;2023-02-01T05:03:12;5.50;99.90
47336;DHT22;33068;51.990;5.926;2023-02-01T05:05:39;5.50;99.90
47336;DHT22;33068;51.990;5.926;2023-02-01T05:08:06;5.60;99.90
47336;DHT22;33068;51.990;5.926;2023-02-01T05:10:33;5.60;99.90
47336;DHT22;33068;51.990;5.926;2023-02-01T05:13:01;5.70;99.90
47336;DHT22;33068;51.990;5.926;2023-02-01T05:15:45;5.80;99.90
47336;DHT22;33068;51.990;5.926;2023-02-01T05:18:14;6.10;99.90
47336;DHT22;33068;51.990;5.926;2023-02-01T05:20:41;5.90;99.90
47336;DHT22;33068;51.990;5.926;2023-02-01T05:23:08;5.90;99.90
47336;DHT22;33068;51.990;5.926;2023-02-01T05:25:36;5.90;99.90
47336;DHT22;33068;51.990;5.926;2023-02-01T05:28:03;5.90;99.90
47336;DHT22;33068;51.990;5.926;2023-02-01T05:30:31;6.00;99.90
47336;DHT22;33068;51.990;5.926;2023-02-01T05:33:00;6.00;99.90
47336;DHT22;33068;51.990;5.926;2023-02-01T05:35:30;6.00;99.90
47336;DHT22;33068;51.990;5.926;2023-02-01T05:37:57;6.00;99.90
47336;DHT22;33068;51.990;5.926;2023-02-01T05:40:24;6.00;99.90
47336;DHT22;33068;51.990;5.926;2023-02-01T05:42:53;6.00;99.90
47336;DHT22;33068;51.990;5.926;2023-02-01T05:45:20;5.90;99.90
47336;DHT22;33068;51.990;5.926;2023-02-01T05:47:48;6.00;99.90
47336;DHT22;33068;51.990;5.926;2023-02-01T05:50:18;6.10;99.90
47336;DHT22;33068;51.990;5.926;2023-02-01T05:52:56;6.10;99.90
47336;DHT22;33068;51.990;5.926;2023-02-01T05:55:27;6.00;99.90
47336;DHT22;33068;51.990;5.926;2023-02-01T05:57:55;6.00;99.90
47336;DHT22;33068;51.990;5.926;2023-02-01T06:00:23;6.00;99.90
47336;DHT22;33068;51.990;5.926;2023-02-01T06:02:54;6.30;99.90
47336;DHT22;33068;51.990;5.926;2023-02-01T06:05:21;6.20;99.90
47336;DHT22;33068;51.990;5.926;2023-02-01T06:07:49;6.20;99.90
47336;DHT22;33068;51.990;5.926;2023-02-01T06:10:18;6.20;99.90
47336;DHT22;33068;51.990;5.926;2023-02-01T06:12:45;6.20;99.90
47336;DHT22;33068;51.990;5.926;2023-02-01T06:15:13;6.20;99.90
47336;DHT22;33068;51.990;5.926;2023-02-01T06:17:41;6.30;99.90
47336;DHT22;33068;51.990;5.926;2023-02-01T06:20:10;6.20;99.90
47336;DHT22;33068;51.990;5.926;2023-02-01T06:22:38;6.20;99.90
47336;DHT22;33068;51.990;5.926;2023-02-01T06:25:08;6.50;99.90
47336;DHT22;33068;51.990;5.926;2023-02-01T06:27:37;6.30;99.90
47336;DHT22;33068;51.990;5.926;2023-02-01T06:30:05;6.40;99.90
47336;DHT22;33068;51.990;5.926;2023-02-01T06:32:33;6.40;99.90
47336;DHT22;33068;51.990;5.926;2023-02-01T06:35:01;6.40;99.90
47336;DHT22;33068;51.990;5.926;2023-02-01T06:37:28;6.40;99.90
47336;DHT22;33068;51.990;5.926;2023-02-01T06:39:56;6.40;99.90
47336;DHT22;33068;51.990;5.926;2023-02-01T06:42:23;6.40;99.90
47336;DHT22;33068;51.990;5.926;2023-02-01T06:44:52;6.40;99.90
47336;DHT22;33068;51.990;5.926;2023-02-01T06:47:19;6.40;99.90
47336;DHT22;33068;51.990;5.926;2023-02-01T06:49:46;6.40;99.90
47336;DHT22;33068;51.990;5.926;2023-02-01T06:52:14;6.30;99.90
47336;DHT22;33068;51.990;5.926;2023-02-01T06:54:42;6.40;99.90
47336;DHT22;33068;51.990;5.926;2023-02-01T06:57:09;6.30;99.90
47336;DHT22;33068;51.990;5.926;2023-02-01T06:59:36;6.30;99.90
47336;DHT22;33068;51.990;5.926;2023-02-01T07:02:05;6.40;99.90
47336;DHT22;33068;51.990;5.926;2023-02-01T07:04:33;6.30;99.90
47336;DHT22;33068;51.990;5.926;2023-02-01T07:07:00;6.30;99.90
47336;DHT22;33068;51.990;5.926;2023-02-01T07:09:27;6.30;99.90
47336;DHT22;33068;51.990;5.926;2023-02-01T07:11:54;6.30;99.90
47336;DHT22;33068;51.990;5.926;2023-02-01T07:14:21;6.30;99.90
47336;DHT22;33068;51.990;5.926;2023-02-01T07:16:48;6.20;99.90
47336;DHT22;33068;51.990;5.926;2023-02-01T07:19:18;6.30;99.90
47336;DHT22;33068;51.990;5.926;2023-02-01T07:21:45;6.30;99.90
47336;DHT22;33068;51.990;5.926;2023-02-01T07:24:12;6.30;99.90
47336;DHT22;33068;51.990;5.926;2023-02-01T07:26:40;6.20;99.90
47336;DHT22;33068;51.990;5.926;2023-02-01T07:29:07;6.10;99.90
47336;DHT22;33068;51.990;5.926;2023-02-01T07:31:34;6.10;99.90
47336;DHT22;33068;51.990;5.926;2023-02-01T07:34:01;6.10;99.90
47336;DHT22;33068;51.990;5.926;2023-02-01T07:36:30;6.10;99.90
47336;DHT22;33068;51.990;5.926;2023-02-01T07:38:59;6.10;99.90
47336;DHT22;33068;51.990;5.926;2023-02-01T07:41:26;6.10;99.90
47336;DHT22;33068;51.990;5.926;2023-02-01T07:43:54;6.10;99.90
47336;DHT22;33068;51.990;5.926;2023-02-01T07:46:21;6.10;99.90
47336;DHT22;33068;51.990;5.926;2023-02-01T07:48:48;6.00;99.90
47336;DHT22;33068;51.990;5.926;2023-02-01T07:51:16;6.10;99.90
47336;DHT22;33068;51.990;5.926;2023-02-01T07:53:45;6.00;99.90
47336;DHT22;33068;51.990;5.926;2023-02-01T07:56:14;6.10;99.90
47336;DHT22;33068;51.990;5.926;2023-02-01T07:58:41;6.10;99.90
47336;DHT22;33068;51.990;5.926;2023-02-01T08:01:16;6.00;99.90
47336;DHT22;33068;51.990;5.926;2023-02-01T08:03:53;6.00;99.90
47336;DHT22;33068;51.990;5.926;2023-02-01T08:06:22;6.10;99.90
47336;DHT22;33068;51.990;5.926;2023-02-01T08:08:52;6.00;99.90
47336;DHT22;33068;51.990;5.926;2023-02-01T08:11:21;6.10;99.90
47336;DHT22;33068;51.990;5.926;2023-02-01T08:13:48;6.10;99.90
47336;DHT22;33068;51.990;5.926;2023-02-01T08:16:17;6.20;99.90
47336;DHT22;33068;51.990;5.926;2023-02-01T08:18:45;6.20;99.90
47336;DHT22;33068;51.990;5.926;2023-02-01T08:21:14;6.40;99.90
47336;DHT22;33068;51.990;5.926;2023-02-01T08:23:45;6.50;99.90
47336;DHT22;33068;51.990;5.926;2023-02-01T08:26:16;6.20;99.90
47336;DHT22;33068;51.990;5.926;2023-02-01T08:28:46;6.20;99.90
47336;DHT22;33068;51.990;5.926;2023-02-01T08:31:15;6.20;99.90
47336;DHT22;33068;51.990;5.926;2023-02-01T08:33:44;6.10;99.90
47336;DHT22;33068;51.990;5.926;2023-02-01T08:36:14;6.20;99.90
47336;DHT22;33068;51.990;5.926;2023-02-01T08:38:42;6.20;99.90
47336;DHT22;33068;51.990;5.926;2023-02-01T08:41:11;6.20;99.90
47336;DHT22;33068;51.990;5.926;2023-02-01T08:43:40;6.20;99.90
47336;DHT22;33068;51.990;5.926;2023-02-01T08:46:08;6.30;99.90
47336;DHT22;33068;51.990;5.926;2023-02-01T08:48:36;6.30;99.90
47336;DHT22;33068;51.990;5.926;2023-02-01T08:51:04;6.40;99.90
47336;DHT22;33068;51.990;5.926;2023-02-01T08:53:32;6.50;99.90
47336;DHT22;33068;51.990;5.926;2023-02-01T08:55:59;6.70;99.90
47336;DHT22;33068;51.990;5.926;2023-02-01T08:58:26;6.80;99.90
47336;DHT22;33068;51.990;5.926;2023-02-01T09:00:55;6.90;99.90
47336;DHT22;33068;51.990;5.926;2023-02-01T09:03:22;6.90;99.90
47336;DHT22;33068;51.990;5.926;2023-02-01T09:05:49;7.20;99.90
47336;DHT22;33068;51.990;5.926;2023-02-01T09:08:20;7.00;99.90
47336;DHT22;33068;51.990;5.926;2023-02-01T09:10:47;7.10;99.90
47336;DHT22;33068;51.990;5.926;2023-02-01T09:13:15;7.10;99.90
47336;DHT22;33068;51.990;5.926;2023-02-01T09:15:42;7.20;99.90
47336;DHT22;33068;51.990;5.926;2023-02-01T09:18:11;7.20;99.90
47336;DHT22;33068;51.990;5.926;2023-02-01T09:20:38;7.20;99.90
47336;DHT22;33068;51.990;5.926;2023-02-01T09:23:07;7.20;99.90
47336;DHT22;33068;51.990;5.926;2023-02-01T09:25:37;7.10;99.90
47336;DHT22;33068;51.990;5.926;2023-02-01T09:28:04;7.20;99.90
47336;DHT22;33068;51.990;5.926;2023-02-01T09:30:33;7.30;99.90
47336;DHT22;33068;51.990;5.926;2023-02-01T09:33:00;7.40;99.90
47336;DHT22;33068;51.990;5.926;2023-02-01T09:35:29;7.40;99.90
47336;DHT22;33068;51.990;5.926;2023-02-01T09:37:56;7.40;99.90
47336;DHT22;33068;51.990;5.926;2023-02-01T09:40:23;7.50;99.90
47336;DHT22;33068;51.990;5.926;2023-02-01T09:43:16;7.70;99.90
47336;DHT22;33068;51.990;5.926;2023-02-01T09:45:54;7.70;99.90
47336;DHT22;33068;51.990;5.926;2023-02-01T09:48:27;7.80;99.90
47336;DHT22;33068;51.990;5.926;2023-02-01T09:51:02;7.80;99.90
47336;DHT22;33068;51.990;5.926;2023-02-01T09:53:34;7.70;99.90
47336;DHT22;33068;51.990;5.926;2023-02-01T09:56:05;7.80;99.90
47336;DHT22;33068;51.990;5.926;2023-02-01T09:58:35;7.60;99.90
47336;DHT22;33068;51.990;5.926;2023-02-01T10:01:08;7.60;99.90
47336;DHT22;33068;51.990;5.926;2023-02-01T10:03:37;7.60;99.90
47336;DHT22;33068;51.990;5.926;2023-02-01T10:09:14;7.60;99.90
47336;DHT22;33068;51.990;5.926;2023-02-01T10:11:47;7.70;99.90
47336;DHT22;33068;51.990;5.926;2023-02-01T10:14:31;7.50;99.90
47336;DHT22;33068;51.990;5.926;2023-02-01T10:17:12;7.50;99.90
47336;DHT22;33068;51.990;5.926;2023-02-01T10:19:47;7.50;99.90
47336;DHT22;33068;51.990;5.926;2023-02-01T10:22:32;7.50;99.90
47336;DHT22;33068;51.990;5.926;2023-02-01T10:25:07;7.40;99.90
47336;DHT22;33068;51.990;5.926;2023-02-01T10:27:37;7.50;99.90
47336;DHT22;33068;51.990;5.926;2023-02-01T10:30:16;7.80;99.90
47336;DHT22;33068;51.990;5.926;2023-02-01T10:32:44;7.50;99.90
47336;DHT22;33068;51.990;5.926;2023-02-01T10:35:14;7.40;99.90
47336;DHT22;33068;51.990;5.926;2023-02-01T10:37:44;7.30;99.90
47336;DHT22;33068;51.990;5.926;2023-02-01T10:40:16;7.30;99.90
47336;DHT22;33068;51.990;5.926;2023-02-01T10:42:45;7.10;99.90
47336;DHT22;33068;51.990;5.926;2023-02-01T10:45:16;7.10;99.90
47336;DHT22;33068;51.990;5.926;2023-02-01T10:47:44;7.00;99.90
47336;DHT22;33068;51.990;5.926;2023-02-01T10:50:18;7.00;99.90
47336;DHT22;33068;51.990;5.926;2023-02-01T10:52:57;6.90;99.90
47336;DHT22;33068;51.990;5.926;2023-02-01T10:55:34;6.90;99.90
47336;DHT22;33068;51.990;5.926;2023-02-01T10:58:04;6.90;99.90
47336;DHT22;33068;51.990;5.926;2023-02-01T11:00:42;6.70;99.90
47336;DHT22;33068;51.990;5.926;2023-02-01T11:03:32;6.70;99.90
47336;DHT22;33068;51.990;5.926;2023-02-01T11:06:00;6.70;99.90
47336;DHT22;33068;51.990;5.926;2023-02-01T11:08:29;6.60;99.90
47336;DHT22;33068;51.990;5.926;2023-02-01T11:10:58;7.10;99.90
47336;DHT22;33068;51.990;5.926;2023-02-01T11:13:29;6.60;99.90
47336;DHT22;33068;51.990;5.926;2023-02-01T11:15:58;6.60;99.90
47336;DHT22;33068;51.990;5.926;2023-02-01T11:18:27;6.60;99.90
47336;DHT22;33068;51.990;5.926;2023-02-01T11:20:55;6.70;99.90
47336;DHT22;33068;51.990;5.926;2023-02-01T11:23:25;6.70;99.90
47336;DHT22;33068;51.990;5.926;2023-02-01T11:25:55;6.70;99.90
47336;DHT22;33068;51.990;5.926;2023-02-01T11:28:25;6.70;99.90
47336;DHT22;33068;51.990;5.926;2023-02-01T11:30:55;6.70;99.90
47336;DHT22;33068;51.990;5.926;2023-02-01T11:33:26;6.70;99.90
47336;DHT22;33068;51.990;5.926;2023-02-01T11:35:56;6.70;99.90
47336;DHT22;33068;51.990;5.926;2023-02-01T11:38:28;6.80;99.90
47336;DHT22;33068;51.990;5.926;2023-02-01T11:41:11;6.90;99.90
47336;DHT22;33068;51.990;5.926;2023-02-01T11:43:51;6.90;99.90
47336;DHT22;33068;51.990;5.926;2023-02-01T11:46:20;6.90;99.90
47336;DHT22;33068;51.990;5.926;2023-02-01T11:48:51;6.90;99.90
47336;DHT22;33068;51.990;5.926;2023-02-01T11:51:31;6.80;99.90
47336;DHT22;33068;51.990;5.926;2023-02-01T11:57:08;6.90;99.90
47336;DHT22;33068;51.990;5.926;2023-02-01T11:59:55;6.90;99.90
47336;DHT22;33068;51.990;5.926;2023-02-01T12:05:40;7.00;99.90
47336;DHT22;33068;51.990;5.926;2023-02-01T12:08:27;7.20;99.90
47336;DHT22;33068;51.990;5.926;2023-02-01T12:11:12;7.00;99.90
47336;DHT22;33068;51.990;5.926;2023-02-01T12:13:53;7.10;99.90
47336;DHT22;33068;51.990;5.926;2023-02-01T12:16:29;7.20;99.90
47336;DHT22;33068;51.990;5.926;2023-02-01T12:19:21;7.20;99.90
47336;DHT22;33068;51.990;5.926;2023-02-01T12:22:12;7.20;99.90
47336;DHT22;33068;51.990;5.926;2023-02-01T12:24:53;7.20;99.90
47336;DHT22;33068;51.990;5.926;2023-02-01T12:27:45;7.30;99.90
47336;DHT22;33068;51.990;5.926;2023-02-01T12:30:44;7.40;99.90
47336;DHT22;33068;51.990;5.926;2023-02-01T12:33:21;7.40;99.90
47336;DHT22;33068;51.990;5.926;2023-02-01T12:36:03;7.50;99.90
47336;DHT22;33068;51.990;5.926;2023-02-01T12:38:44;7.50;99.90
47336;DHT22;33068;51.990;5.926;2023-02-01T12:41:26;7.60;99.90
47336;DHT22;33068;51.990;5.926;2023-02-01T12:43:57;7.70;99.90
47336;DHT22;33068;51.990;5.926;2023-02-01T12:46:31;7.70;99.90
47336;DHT22;33068;51.990;5.926;2023-02-01T12:49:03;7.70;99.90
47336;DHT22;33068;51.990;5.926;2023-02-01T12:51:35;7.70;99.90
47336;DHT22;33068;51.990;5.926;2023-02-01T12:54:10;7.70;99.90
47336;DHT22;33068;51.990;5.926;2023-02-01T12:56:41;8.00;99.90
47336;DHT22;33068;51.990;5.926;2023-02-01T12:59:19;7.70;99.90
47336;DHT22;33068;51.990;5.926;2023-02-01T13:01:54;7.80;99.90
47336;DHT22;33068;51.990;5.926;2023-02-01T13:04:29;7.70;99.90
47336;DHT22;33068;51.990;5.926;2023-02-01T13:07:04;7.70;99.90
47336;DHT22;33068;51.990;5.926;2023-02-01T13:09:38;7.80;99.90
47336;DHT22;33068;51.990;5.926;2023-02-01T13:12:11;7.70;99.90
47336;DHT22;33068;51.990;5.926;2023-02-01T13:14:43;7.90;99.90
47336;DHT22;33068;51.990;5.926;2023-02-01T13:17:16;7.80;99.90
47336;DHT22;33068;51.990;5.926;2023-02-01T13:19:49;7.80;99.90
47336;DHT22;33068;51.990;5.926;2023-02-01T13:22:25;7.70;99.90
47336;DHT22;33068;51.990;5.926;2023-02-01T13:24:56;7.80;99.90
47336;DHT22;33068;51.990;5.926;2023-02-01T13:27:26;7.70;99.90
47336;DHT22;33068;51.990;5.926;2023-02-01T13:30:01;7.70;99.90
47336;DHT22;33068;51.990;5.926;2023-02-01T13:32:48;7.70;99.90
47336;DHT22;33068;51.990;5.926;2023-02-01T13:35:33;7.80;99.90
47336;DHT22;33068;51.990;5.926;2023-02-01T13:38:18;7.80;99.90
47336;DHT22;33068;51.990;5.926;2023-02-01T13:40:51;7.90;99.90
47336;DHT22;33068;51.990;5.926;2023-02-01T13:43:24;7.80;99.90
47336;DHT22;33068;51.990;5.926;2023-02-01T13:45:56;7.80;99.90
47336;DHT22;33068;51.990;5.926;2023-02-01T13:48:29;7.90;99.90
47336;DHT22;33068;51.990;5.926;2023-02-01T13:50:59;7.90;99.90
47336;DHT22;33068;51.990;5.926;2023-02-01T13:53:29;7.80;99.90
47336;DHT22;33068;51.990;5.926;2023-02-01T13:56:02;7.80;99.90
47336;DHT22;33068;51.990;5.926;2023-02-01T13:58:34;7.70;99.90
47336;DHT22;33068;51.990;5.926;2023-02-01T14:01:33;7.70;99.90
47336;DHT22;33068;51.990;5.926;2023-02-01T14:04:04;7.70;99.90
47336;DHT22;33068;51.990;5.926;2023-02-01T14:06:40;7.80;99.90
47336;DHT22;33068;51.990;5.926;2023-02-01T14:09:31;7.70;99.90
47336;DHT22;33068;51.990;5.926;2023-02-01T14:15:19;7.70;99.90
47336;DHT22;33068;51.990;5.926;2023-02-01T14:17:48;7.90;99.90
47336;DHT22;33068;51.990;5.926;2023-02-01T14:20:45;7.70;99.90
47336;DHT22;33068;51.990;5.926;2023-02-01T14:23:28;7.80;99.90
47336;DHT22;33068;51.990;5.926;2023-02-01T14:26:07;7.80;99.90
47336;DHT22;33068;51.990;5.926;2023-02-01T14:28:39;7.90;99.90
47336;DHT22;33068;51.990;5.926;2023-02-01T14:31:25;7.90;99.90
47336;DHT22;33068;51.990;5.926;2023-02-01T14:33:57;7.90;99.90
47336;DHT22;33068;51.990;5.926;2023-02-01T14:36:39;8.00;99.90
47336;DHT22;33068;51.990;5.926;2023-02-01T14:39:36;8.00;99.90
47336;DHT22;33068;51.990;5.926;2023-02-01T14:42:14;7.90;99.90
47336;DHT22;33068;51.990;5.926;2023-02-01T14:44:44;8.00;99.90
47336;DHT22;33068;51.990;5.926;2023-02-01T14:47:30;7.90;99.90
47336;DHT22;33068;51.990;5.926;2023-02-01T14:50:20;7.90;99.90
47336;DHT22;33068;51.990;5.926;2023-02-01T14:53:03;7.90;99.90
47336;DHT22;33068;51.990;5.926;2023-02-01T14:55:35;8.00;99.90
47336;DHT22;33068;51.990;5.926;2023-02-01T14:58:10;8.00;99.90
47336;DHT22;33068;51.990;5.926;2023-02-01T15:00:48;8.00;99.90
47336;DHT22;33068;51.990;5.926;2023-02-01T15:03:25;8.00;99.90
47336;DHT22;33068;51.990;5.926;2023-02-01T15:05:58;8.00;99.90
47336;DHT22;33068;51.990;5.926;2023-02-01T15:08:31;8.10;99.90
47336;DHT22;33068;51.990;5.926;2023-02-01T15:11:00;8.10;99.90
47336;DHT22;33068;51.990;5.926;2023-02-01T15:13:32;8.00;99.90
47336;DHT22;33068;51.990;5.926;2023-02-01T15:16:04;8.00;99.90
47336;DHT22;33068;51.990;5.926;2023-02-01T15:18:35;8.00;99.90
47336;DHT22;33068;51.990;5.926;2023-02-01T15:21:04;8.00;99.90
47336;DHT22;33068;51.990;5.926;2023-02-01T15:23:33;7.90;99.90
47336;DHT22;33068;51.990;5.926;2023-02-01T15:26:00;7.90;99.90
47336;DHT22;33068;51.990;5.926;2023-02-01T15:28:27;7.80;99.90
47336;DHT22;33068;51.990;5.926;2023-02-01T15:30:57;7.70;99.90
47336;DHT22;33068;51.990;5.926;2023-02-01T15:33:24;7.60;99.90
47336;DHT22;33068;51.990;5.926;2023-02-01T15:35:53;7.60;99.90
47336;DHT22;33068;51.990;5.926;2023-02-01T15:38:35;7.60;99.90
47336;DHT22;33068;51.990;5.926;2023-02-01T15:41:08;7.60;99.90
47336;DHT22;33068;51.990;5.926;2023-02-01T15:43:40;7.50;99.90
47336;DHT22;33068;51.990;5.926;2023-02-01T15:46:11;7.40;99.90
47336;DHT22;33068;51.990;5.926;2023-02-01T15:48:43;7.20;99.90
47336;DHT22;33068;51.990;5.926;2023-02-01T15:51:17;7.00;99.90
47336;DHT22;33068;51.990;5.926;2023-02-01T15:53:49;6.70;99.90
47336;DHT22;33068;51.990;5.926;2023-02-01T15:56:22;6.70;99.90
47336;DHT22;33068;51.990;5.926;2023-02-01T15:58:58;6.60;99.90
47336;DHT22;33068;51.990;5.926;2023-02-01T16:01:26;6.60;99.90
47336;DHT22;33068;51.990;5.926;2023-02-01T16:04:10;6.70;99.90
47336;DHT22;33068;51.990;5.926;2023-02-01T16:06:53;6.60;99.90
47336;DHT22;33068;51.990;5.926;2023-02-01T16:09:23;6.60;99.90
47336;DHT22;33068;51.990;5.926;2023-02-01T16:11:57;6.60;99.90
47336;DHT22;33068;51.990;5.926;2023-02-01T16:14:25;6.60;99.90
47336;DHT22;33068;51.990;5.926;2023-02-01T16:16:55;6.50;99.90
47336;DHT22;33068;51.990;5.926;2023-02-01T16:19:23;6.60;99.90
47336;DHT22;33068;51.990;5.926;2023-02-01T16:21:54;6.50;99.90
47336;DHT22;33068;51.990;5.926;2023-02-01T16:24:23;6.40;99.90
47336;DHT22;33068;51.990;5.926;2023-02-01T16:26:51;6.60;99.90
47336;DHT22;33068;51.990;5.926;2023-02-01T16:29:19;6.70;99.90
47336;DHT22;33068;51.990;5.926;2023-02-01T16:31:48;6.80;99.90
47336;DHT22;33068;51.990;5.926;2023-02-01T16:34:17;6.90;99.90